Time;durP1;ratioP1;P1;durP2;ratioP2;P2;SDS_P1;SDS_P2;PMS_P1;PMS_P2;Temp;Humidity;BMP_temperature;BMP_pressure;BME280_temperature;BME280_humidity;BME280_pressure;Samples;Min_cycle;Max_cycle;Signal;HPM_P1;HPM_P2
2021/07/23 00:02:16;;;;;;;;;20.00;17.50;;;;;26.29;42.73;101313.56;5059802;28;45431;-46
2021/07/23 00:04:42;;;;;;;;;16.75;13.50;;;;;26.29;42.91;101318.88;5078174;28;45437;-47
2021/07/23 00:07:08;;;;;;;;;17.00;14.00;;;;;26.27;43.09;101311.00;5077611;28;47111;-44
2021/07/23 00:09:33;;;;;;;;;18.50;16.25;;;;;26.27;43.01;101313.66;5077611;27;45284;-44
2021/07/23 00:11:59;;;;;;;;;15.75;14.50;;;;;26.26;42.74;101311.13;5078059;28;45406;-44
2021/07/23 00:14:25;;;;;;;;;16.50;14.50;;;;;26.21;43.18;101306.97;5078405;28;45248;-46
2021/07/23 00:16:51;;;;;;;;;11.00;11.00;;;;;26.21;42.96;101304.31;5077678;28;46203;-45
2021/07/23 00:19:16;;;;;;;;;18.50;15.25;;;;;26.20;42.75;101307.94;5077591;28;45315;-45
2021/07/23 00:21:41;;;;;;;;;15.00;14.25;;;;;26.21;42.97;101314.94;5077711;28;45768;-45
2021/07/23 00:24:06;;;;;;;;;15.00;14.25;;;;;26.17;43.23;101302.88;5077337;28;51287;-44
2021/07/23 00:26:32;;;;;;;;;15.00;13.25;;;;;26.17;42.91;101296.69;5077202;28;46093;-45
2021/07/23 00:28:57;;;;;;;;;16.25;13.75;;;;;26.15;42.79;101291.50;5077256;28;51091;-46
2021/07/23 00:31:22;;;;;;;;;17.50;16.00;;;;;26.15;42.81;101296.81;5077499;28;45343;-47
2021/07/23 00:33:48;;;;;;;;;15.50;13.25;;;;;26.16;43.29;101295.84;5077721;28;45371;-45
2021/07/23 00:36:13;;;;;;;;;15.75;13.75;;;;;26.15;43.21;101295.94;5077056;28;55603;-47
2021/07/23 00:38:38;;;;;;;;;12.75;12.00;;;;;26.13;43.47;101288.09;5077214;28;45546;-46
2021/07/23 00:41:04;;;;;;;;;15.00;14.50;;;;;26.13;43.08;101285.44;5077543;27;45409;-46
2021/07/23 00:43:29;;;;;;;;;15.50;14.75;;;;;26.12;43.09;101283.75;5077705;28;45335;-47
2021/07/23 00:45:55;;;;;;;;;17.75;16.00;;;;;26.12;43.27;101282.91;5077083;28;46011;-46
2021/07/23 00:48:22;;;;;;;;;15.75;14.25;;;;;26.12;43.65;101283.75;5076487;28;45311;-48
2021/07/23 00:50:47;;;;;;;;;12.75;12.75;;;;;26.12;43.58;101286.41;5058665;28;45458;-46
2021/07/23 00:53:14;;;;;;;;;15.75;13.00;;;;;26.12;43.40;101282.91;5059382;28;45351;-43
2021/07/23 00:55:42;;;;;;;;;13.00;11.00;;;;;26.13;43.39;101292.56;5077086;27;46357;-47
2021/07/23 00:58:09;;;;;;;;;15.50;12.50;;;;;26.12;43.03;101278.44;5076932;28;45378;-46
2021/07/23 01:00:36;;;;;;;;;14.25;13.00;;;;;26.12;43.58;101272.28;5077314;28;45311;-45
2021/07/23 01:03:03;;;;;;;;;17.00;14.25;;;;;26.10;43.72;101272.38;5077211;28;45589;-45
2021/07/23 01:05:28;;;;;;;;;14.50;11.50;;;;;26.10;43.01;101269.72;5077016;28;47796;-44
2021/07/23 01:07:54;;;;;;;;;16.50;13.00;;;;;26.06;43.21;101258.44;5076805;28;45450;-45
2021/07/23 01:10:19;;;;;;;;;12.00;11.25;;;;;26.05;43.54;101256.75;5076793;28;45229;-45
2021/07/23 01:12:44;;;;;;;;;11.00;11.00;;;;;26.04;43.88;101248.91;5076987;28;45700;-47
2021/07/23 01:15:10;;;;;;;;;20.75;16.25;;;;;26.04;43.20;101251.56;5076654;28;45600;-45
2021/07/23 01:17:37;;;;;;;;;12.50;12.50;;;;;26.03;43.60;101253.34;5076696;28;45592;-46
2021/07/23 01:20:16;;;;;;;;;14.25;14.25;;;;;26.04;43.76;101255.03;5076827;28;45348;-44
2021/07/23 01:22:42;;;;;;;;;17.50;13.25;;;;;26.03;43.35;101252.50;5077088;28;45363;-46
2021/07/23 01:25:09;;;;;;;;;16.25;14.25;;;;;26.02;43.50;101250.81;5076498;28;45422;-48
2021/07/23 01:27:41;;;;;;;;;14.50;12.25;;;;;26.01;43.63;101257.06;5076603;28;45428;-46
2021/07/23 01:30:08;;;;;;;;;14.00;14.00;;;;;26.01;43.66;101257.06;5076692;28;45698;-45
2021/07/23 01:32:34;;;;;;;;;12.00;11.50;;;;;25.99;43.64;101251.03;5076677;28;45558;-44
2021/07/23 01:35:00;;;;;;;;;17.75;13.50;;;;;25.97;43.70;101253.78;5076645;28;46174;-45
2021/07/23 01:37:25;;;;;;;;;14.00;12.00;;;;;25.97;44.01;101251.16;5076434;27;45348;-45
2021/07/23 01:39:53;;;;;;;;;15.75;13.50;;;;;25.96;43.97;101246.78;5076519;28;45241;-45
2021/07/23 01:42:18;;;;;;;;;13.75;13.00;;;;;25.96;43.42;101240.66;5076365;27;45569;-46
2021/07/23 01:44:44;;;;;;;;;13.75;12.00;;;;;25.93;43.94;101242.56;5076213;28;46693;-45
2021/07/23 01:47:09;;;;;;;;;14.50;13.50;;;;;25.93;43.67;101242.56;5076306;28;45376;-46
2021/07/23 01:49:34;;;;;;;;;15.75;13.25;;;;;25.92;44.12;101246.16;5076254;28;45311;-46
2021/07/23 01:52:00;;;;;;;;;14.75;12.75;;;;;25.90;43.94;101237.47;5076794;28;45315;-48
2021/07/23 01:54:25;;;;;;;;;12.75;11.75;;;;;25.88;43.85;101244.69;5076027;27;45325;-46
2021/07/23 01:56:50;;;;;;;;;13.25;12.00;;;;;25.87;43.56;101240.31;5076022;28;45392;-48
2021/07/23 01:59:16;;;;;;;;;14.00;11.25;;;;;25.88;43.52;101231.41;5076129;28;45434;-46
2021/07/23 02:01:41;;;;;;;;;16.25;13.75;;;;;25.88;43.58;101234.06;5079529;28;45621;-46
2021/07/23 02:04:07;;;;;;;;;16.25;15.00;;;;;25.88;44.25;101234.06;5079683;27;45280;-45
2021/07/23 02:06:32;;;;;;;;;12.75;12.25;;;;;25.87;44.00;101231.53;5079884;28;45244;-48
2021/07/23 02:08:57;;;;;;;;;14.75;13.50;;;;;25.87;43.64;101232.34;5079807;28;45330;-47
2021/07/23 02:11:23;;;;;;;;;10.25;10.25;;;;;25.88;43.88;101238.53;5079858;28;45512;-46
2021/07/23 02:13:48;;;;;;;;;13.50;11.75;;;;;25.87;44.02;101228.88;5079572;27;46459;-46
2021/07/23 02:16:14;;;;;;;;;13.75;12.00;;;;;25.87;43.89;101234.19;5079529;28;45277;-46
2021/07/23 02:18:39;;;;;;;;;13.00;12.00;;;;;25.87;43.63;101226.22;5079609;28;45263;-44
2021/07/23 02:21:07;;;;;;;;;19.25;17.75;;;;;25.84;44.17;101227.28;5080029;28;45596;-50
2021/07/23 02:23:32;;;;;;;;;13.75;13.75;;;;;25.84;43.70;101229.94;5079463;28;46113;-46
2021/07/23 02:25:58;;;;;;;;;14.75;13.75;;;;;25.84;44.00;101229.94;5079096;27;45433;-45
2021/07/23 02:28:23;;;;;;;;;15.00;13.25;;;;;25.85;44.33;101223.66;5079304;28;45444;-47
2021/07/23 02:30:48;;;;;;;;;15.75;13.50;;;;;25.85;44.43;101223.66;5079359;28;45565;-47
2021/07/23 02:33:14;;;;;;;;;17.75;16.25;;;;;25.84;43.90;101229.09;5078744;27;46025;-46
2021/07/23 02:35:39;;;;;;;;;17.75;16.25;;;;;25.81;44.19;101227.50;5078877;28;45450;-46
2021/07/23 02:38:04;;;;;;;;;15.25;14.00;;;;;25.78;43.97;101225.06;5079445;28;45474;-48
2021/07/23 02:40:30;;;;;;;;;14.50;12.75;;;;;25.75;44.21;101223.47;5079032;27;45545;-47
2021/07/23 02:42:55;;;;;;;;;14.75;13.50;;;;;25.72;44.54;101222.84;5078697;28;46265;-47
2021/07/23 02:45:20;;;;;;;;;14.75;14.75;;;;;25.70;44.55;101224.78;5078909;28;45446;-47
2021/07/23 02:47:46;;;;;;;;;18.00;15.75;;;;;25.67;44.27;101220.53;5078802;28;45373;-46
2021/07/23 02:50:11;;;;;;;;;15.75;14.25;;;;;25.66;44.71;101220.63;5078970;27;45359;-48
2021/07/23 02:52:36;;;;;;;;;16.75;14.50;;;;;25.63;44.53;101216.41;5078386;27;46332;-46
2021/07/23 02:55:03;;;;;;;;;16.50;15.50;;;;;25.60;44.78;101214.81;5079074;28;45469;-49
2021/07/23 02:57:29;;;;;;;;;16.50;13.25;;;;;25.58;44.80;101214.06;5078626;28;45258;-46
2021/07/23 02:59:54;;;;;;;;;13.00;12.25;;;;;25.56;44.46;101200.06;5078823;27;45204;-47
2021/07/23 03:02:19;;;;;;;;;14.75;14.75;;;;;25.53;44.64;101202.91;5078350;28;46118;-46
2021/07/23 03:04:45;;;;;;;;;13.00;11.75;;;;;25.51;45.02;101199.56;5078518;27;45199;-46
2021/07/23 03:07:10;;;;;;;;;15.25;14.00;;;;;25.49;44.69;101203.25;5078613;27;45275;-46
2021/07/23 03:09:35;;;;;;;;;15.25;14.50;;;;;25.47;44.52;101201.56;5079165;28;45631;-47
2021/07/23 03:12:01;;;;;;;;;13.25;13.25;;;;;25.46;44.53;101196.34;5077296;28;51660;-46
2021/07/23 03:14:26;;;;;;;;;13.50;12.50;;;;;25.45;44.82;101194.66;5078407;28;45237;-47
2021/07/23 03:16:51;;;;;;;;;15.25;14.25;;;;;25.44;45.06;101200.94;5078380;28;45202;-46
2021/07/23 03:19:16;;;;;;;;;17.75;11.75;;;;;25.42;44.72;101197.53;5078330;27;45270;-46
2021/07/23 03:21:42;;;;;;;;;17.75;14.00;;;;;25.41;45.40;101203.81;5077984;27;48700;-46
2021/07/23 03:24:07;;;;;;;;;13.50;12.00;;;;;25.40;45.35;101202.09;5060294;27;46358;-46
2021/07/23 03:26:33;;;;;;;;;17.25;14.25;;;;;25.39;45.30;101200.38;5078458;28;45497;-46
2021/07/23 03:28:59;;;;;;;;;16.00;14.25;;;;;25.37;45.37;101196.97;5078295;28;45569;-48
2021/07/23 03:31:24;;;;;;;;;17.00;16.25;;;;;25.36;45.35;101188.16;5078052;28;46234;-45
2021/07/23 03:33:51;;;;;;;;;13.50;12.50;;;;;25.35;45.26;101193.59;5077991;27;45447;-46
2021/07/23 03:36:16;;;;;;;;;17.25;16.00;;;;;25.34;45.62;101197.19;5078211;28;45311;-45
2021/07/23 03:38:41;;;;;;;;;16.50;16.00;;;;;25.34;45.55;101198.06;5078326;28;45529;-45
2021/07/23 03:41:07;;;;;;;;;16.25;15.00;;;;;25.33;45.71;101196.34;5077831;28;60456;-44
2021/07/23 03:43:32;;;;;;;;;16.50;14.25;;;;;25.30;45.65;101192.09;5078108;28;45387;-45
2021/07/23 03:45:59;;;;;;;;;20.00;15.75;;;;;25.29;45.59;101190.44;5077945;28;45348;-47
2021/07/23 03:48:24;;;;;;;;;18.00;14.75;;;;;25.29;45.73;101179.81;5077928;28;45494;-44
2021/07/23 03:50:49;;;;;;;;;17.00;14.50;;;;;25.27;45.66;101171.09;5077748;28;45333;-48
2021/07/23 03:53:15;;;;;;;;;17.50;14.50;;;;;25.28;45.48;101163.97;5077654;28;45316;-48
2021/07/23 03:55:41;;;;;;;;;17.75;17.75;;;;;25.26;45.76;101156.16;5077792;28;45249;-46
2021/07/23 03:58:06;;;;;;;;;17.00;16.00;;;;;25.23;45.30;101145.75;5078310;28;45474;-46
2021/07/23 04:00:31;;;;;;;;;11.50;11.50;;;;;25.21;45.54;101136.22;5077399;28;51098;-45
2021/07/23 04:02:58;;;;;;;;;16.00;15.00;;;;;25.19;45.18;101136.28;5077519;28;45326;-45
2021/07/23 04:05:23;;;;;;;;;19.50;14.50;;;;;25.17;45.57;101130.28;5077665;27;45320;-47
2021/07/23 04:07:49;;;;;;;;;18.00;14.00;;;;;25.14;45.99;101127.84;5077805;28;45360;-46
2021/07/23 04:10:14;;;;;;;;;17.50;15.50;;;;;25.12;45.64;101124.44;5077415;27;45651;-45
2021/07/23 04:12:39;;;;;;;;;19.00;16.50;;;;;25.09;46.40;101128.16;5077512;28;45505;-45
2021/07/23 04:15:09;;;;;;;;;18.25;15.75;;;;;25.06;46.02;101131.03;5077468;28;45406;-47
2021/07/23 04:17:35;;;;;;;;;20.00;16.75;;;;;25.03;46.27;101136.53;5077880;28;45646;-44
2021/07/23 04:20:00;;;;;;;;;17.25;15.75;;;;;25.00;45.79;101142.91;5077269;28;46297;-45
2021/07/23 04:22:25;;;;;;;;;18.25;14.75;;;;;24.98;45.87;101142.16;5077196;27;45249;-45
2021/07/23 04:24:50;;;;;;;;;17.75;15.75;;;;;24.97;45.74;101137.81;5076968;27;49923;-44
2021/07/23 04:27:16;;;;;;;;;18.50;16.50;;;;;24.95;46.37;101131.78;5077313;28;45428;-45
2021/07/23 04:29:44;;;;;;;;;14.75;12.50;;;;;24.93;46.31;101125.75;5076986;27;46305;-46
2021/07/23 04:32:10;;;;;;;;;17.75;15.00;;;;;24.93;46.24;101131.03;5077429;28;45343;-48
2021/07/23 04:34:35;;;;;;;;;20.00;16.25;;;;;24.94;46.24;101135.38;5077131;28;45331;-50
2021/07/23 04:37:00;;;;;;;;;20.75;15.75;;;;;24.95;46.35;101122.97;5077366;28;45382;-49
2021/07/23 04:39:26;;;;;;;;;21.00;19.75;;;;;24.95;45.99;101126.47;5076900;28;45294;-47
2021/07/23 04:41:51;;;;;;;;;19.50;15.00;;;;;24.95;46.10;101126.47;5077035;28;45343;-47
2021/07/23 04:44:16;;;;;;;;;14.00;14.00;;;;;24.94;46.50;101122.13;5077201;28;45469;-49
2021/07/23 04:46:42;;;;;;;;;15.25;13.00;;;;;24.96;46.49;101128.19;5077419;28;45862;-47
2021/07/23 04:49:07;;;;;;;;;19.75;19.75;;;;;24.97;46.03;101124.53;5076726;28;53283;-47
2021/07/23 04:51:32;;;;;;;;;15.25;13.50;;;;;24.97;46.08;101121.91;5076849;28;45390;-49
2021/07/23 04:53:58;;;;;;;;;16.25;16.00;;;;;24.98;46.47;101122.75;5076851;28;45429;-47
2021/07/23 04:56:23;;;;;;;;;15.50;13.00;;;;;24.98;46.15;101126.25;5077133;28;45485;-49
2021/07/23 04:58:48;;;;;;;;;18.00;16.75;;;;;24.98;46.09;101125.41;5076540;28;46110;-48
2021/07/23 05:01:14;;;;;;;;;15.25;13.75;;;;;25.00;46.41;101131.47;5076663;28;45892;-51
2021/07/23 05:03:39;;;;;;;;;18.00;16.25;;;;;25.00;46.58;101142.91;5077299;28;45430;-45
2021/07/23 05:06:07;;;;;;;;;18.50;17.75;;;;;25.01;46.53;101141.13;5076936;28;45329;-47
2021/07/23 05:08:36;;;;;;;;;21.00;16.25;;;;;25.01;46.39;101133.16;5076446;28;45995;-48
2021/07/23 05:11:03;;;;;;;;;17.75;14.25;;;;;25.00;46.49;101127.00;5076492;28;45344;-48
2021/07/23 05:13:30;;;;;;;;;17.75;15.00;;;;;25.00;46.24;101129.66;5076757;27;45727;-48
2021/07/23 05:15:57;;;;;;;;;18.50;17.75;;;;;24.98;46.08;101128.91;5076792;28;45431;-49
2021/07/23 05:18:23;;;;;;;;;16.00;13.50;;;;;24.98;46.41;101128.06;5076205;28;47102;-47
2021/07/23 05:20:49;;;;;;;;;13.75;12.25;;;;;24.96;46.46;101117.56;5076387;28;45404;-47
2021/07/23 05:23:15;;;;;;;;;18.25;16.25;;;;;24.96;46.59;101119.38;5076466;28;45438;-45
2021/07/23 05:25:41;;;;;;;;;20.00;19.00;;;;;24.94;46.27;101122.13;5076762;27;45486;-47
2021/07/23 05:28:07;;;;;;;;;13.25;11.75;;;;;24.94;46.61;101119.47;5075871;28;45324;-47
2021/07/23 05:30:32;;;;;;;;;18.50;16.75;;;;;24.94;46.61;101118.63;5076272;27;45315;-47
2021/07/23 05:32:57;;;;;;;;;19.25;16.50;;;;;24.94;46.36;101116.81;5076191;27;45300;-50
2021/07/23 05:35:22;;;;;;;;;16.50;15.50;;;;;24.94;46.63;101110.66;5075748;28;45619;-49
2021/07/23 05:37:48;;;;;;;;;16.50;13.00;;;;;24.93;46.30;101120.44;5057783;28;48261;-48
2021/07/23 05:40:16;;;;;;;;;19.00;15.50;;;;;24.93;46.55;101120.44;5076422;28;45219;-47
2021/07/23 05:42:41;;;;;;;;;17.25;17.00;;;;;24.91;46.30;101114.38;5075723;28;45334;-46
2021/07/23 05:45:07;;;;;;;;;23.25;17.50;;;;;24.90;46.89;101120.63;5076412;28;45541;-48
2021/07/23 05:47:32;;;;;;;;;19.50;17.25;;;;;24.91;46.51;101118.84;5075726;28;46180;-46
2021/07/23 05:49:58;;;;;;;;;21.50;19.25;;;;;24.91;46.56;101117.03;5075852;28;45347;-46
2021/07/23 05:52:23;;;;;;;;;23.00;19.00;;;;;24.91;46.29;101109.06;5075509;28;53790;-47
2021/07/23 05:54:48;;;;;;;;;22.25;18.25;;;;;24.90;46.26;101110.03;5076083;27;45446;-48
2021/07/23 05:57:14;;;;;;;;;20.00;18.25;;;;;24.90;46.36;101103.91;5075946;28;45325;-46
2021/07/23 05:59:39;;;;;;;;;25.25;20.25;;;;;24.90;46.72;101099.44;5075711;28;45426;-45
2021/07/23 06:02:04;;;;;;;;;20.25;19.50;;;;;24.90;46.72;101099.44;5075791;28;45374;-50
2021/07/23 06:04:30;;;;;;;;;19.75;19.25;;;;;24.90;46.67;101099.44;5076150;28;45564;-48
2021/07/23 06:06:55;;;;;;;;;22.00;18.25;;;;;24.91;46.50;101095.81;5075587;28;48088;-48
2021/07/23 06:09:20;;;;;;;;;19.25;17.25;;;;;24.91;46.58;101085.22;5075695;28;45331;-47
2021/07/23 06:11:46;;;;;;;;;18.50;17.75;;;;;24.92;46.26;101081.63;5075942;27;45265;-47
2021/07/23 06:14:11;;;;;;;;;20.00;16.75;;;;;24.92;46.43;101072.78;5076312;28;45446;-46
2021/07/23 06:16:42;;;;;;;;;19.25;16.00;;;;;24.92;46.45;101073.66;5075438;28;46196;-48
2021/07/23 06:19:08;;;;;;;;;20.75;18.75;;;;;24.93;46.26;101071.84;5075724;27;45343;-48
2021/07/23 06:21:34;;;;;;;;;22.00;20.75;;;;;24.92;46.05;101071.00;5075692;28;45440;-46
2021/07/23 06:23:59;;;;;;;;;18.00;14.50;;;;;24.91;46.26;101066.66;5075799;27;45424;-46
2021/07/23 06:26:24;;;;;;;;;21.75;20.25;;;;;24.92;46.50;101070.16;5075286;28;47007;-47
2021/07/23 06:28:50;;;;;;;;;23.75;21.25;;;;;24.90;46.07;101070.25;5057044;28;45375;-47
2021/07/23 06:31:15;;;;;;;;;24.25;18.00;;;;;24.92;46.25;101070.16;5075837;27;45276;-46
2021/07/23 06:33:41;;;;;;;;;17.00;17.00;;;;;24.92;46.06;101071.00;5075809;28;45711;-47
2021/07/23 06:36:06;;;;;;;;;19.00;16.75;;;;;24.91;46.14;101064.00;5075491;28;46178;-46
2021/07/23 06:38:32;;;;;;;;;24.25;19.25;;;;;24.92;45.94;101064.84;5057051;28;45427;-46
2021/07/23 06:40:58;;;;;;;;;20.75;17.50;;;;;24.93;45.96;101055.94;5075629;28;45257;-52
2021/07/23 06:43:23;;;;;;;;;22.50;20.75;;;;;24.97;46.07;101068.03;5075445;28;45465;-45
2021/07/23 06:45:56;;;;;;;;;20.75;20.50;;;;;24.97;46.59;101058.25;5075191;28;45301;-44
2021/07/23 06:48:21;;;;;;;;;19.50;17.50;;;;;25.00;46.56;101055.41;5077644;28;45959;-45
2021/07/23 06:50:49;;;;;;;;;24.50;21.25;;;;;25.01;46.38;101049.13;5079352;28;45336;-46
2021/07/23 06:53:15;;;;;;;;;19.25;17.50;;;;;25.01;45.81;101046.50;5079319;28;45336;-46
2021/07/23 06:55:40;;;;;;;;;19.00;18.00;;;;;25.01;46.34;101046.50;5078596;28;46224;-48
2021/07/23 06:58:05;;;;;;;;;17.75;17.75;;;;;25.04;46.20;101047.22;5078605;28;45328;-46
2021/07/23 07:00:31;;;;;;;;;24.00;19.25;;;;;25.06;46.53;101053.28;5078326;27;51894;-46
2021/07/23 07:02:56;;;;;;;;;24.50;17.50;;;;;25.09;46.60;101047.72;5078654;28;45614;-44
2021/07/23 07:05:24;;;;;;;;;19.00;19.00;;;;;25.09;46.90;101048.59;5078465;27;45229;-46
2021/07/23 07:07:49;;;;;;;;;20.00;17.00;;;;;25.13;46.79;101047.44;5078391;27;45962;-47
2021/07/23 07:10:15;;;;;;;;;19.50;16.50;;;;;25.15;46.03;101039.34;5079012;28;45390;-46
2021/07/23 07:12:40;;;;;;;;;18.25;18.25;;;;;25.17;46.19;101040.09;5075639;27;45598;-47
2021/07/23 07:15:06;;;;;;;;;20.25;19.75;;;;;25.22;45.92;101040.59;5077602;28;46124;-48
2021/07/23 07:17:31;;;;;;;;;24.00;23.50;;;;;25.23;46.26;101026.38;5078027;28;45998;-42
2021/07/23 07:19:59;;;;;;;;;23.75;21.50;;;;;25.28;45.92;101029.56;5078577;28;45410;-48
2021/07/23 07:22:26;;;;;;;;;24.75;20.00;;;;;25.30;45.60;101024.97;5078619;28;45340;-46
2021/07/23 07:24:51;;;;;;;;;17.00;15.00;;;;;25.34;45.58;101028.25;5078267;28;46177;-46
2021/07/23 07:27:17;;;;;;;;;20.75;17.25;;;;;25.38;45.44;101023.56;5077616;28;45356;-46
2021/07/23 07:29:42;;;;;;;;;19.00;18.75;;;;;25.41;45.48;101031.34;5093492;27;45604;-46
2021/07/23 07:32:08;;;;;;;;;21.25;18.00;;;;;25.42;45.41;101036.53;5060015;28;45488;-49
2021/07/23 07:34:34;;;;;;;;;22.00;19.50;;;;;25.46;45.43;101037.16;5077943;28;45447;-45
2021/07/23 07:37:01;;;;;;;;;19.75;17.75;;;;;25.47;45.36;101039.69;5077874;28;46337;-46
2021/07/23 07:39:27;;;;;;;;;27.25;23.00;;;;;25.50;45.20;101041.28;5077909;28;45407;-44
2021/07/23 07:41:52;;;;;;;;;24.25;21.50;;;;;25.54;45.51;101044.56;5078073;27;45403;-45
2021/07/23 07:44:17;;;;;;;;;23.25;21.50;;;;;25.55;45.66;101038.28;5077927;27;45451;-46
2021/07/23 07:46:43;;;;;;;;;22.00;20.75;;;;;25.58;44.93;101040.69;5078103;28;45415;-46
2021/07/23 07:49:08;;;;;;;;;18.75;17.75;;;;;25.59;45.70;101037.06;5077325;28;45399;-45
2021/07/23 07:51:33;;;;;;;;;23.75;20.25;;;;;25.60;44.98;101033.47;5093560;27;45268;-48
2021/07/23 07:53:59;;;;;;;;;24.75;21.50;;;;;25.61;45.23;101033.38;5077347;28;45551;-44
2021/07/23 07:56:24;;;;;;;;;19.25;19.25;;;;;25.62;45.36;101037.72;5077494;28;45240;-45
2021/07/23 07:58:49;;;;;;;;;21.75;19.00;;;;;25.62;45.02;101034.22;5077289;27;45367;-46
2021/07/23 08:01:14;;;;;;;;;22.75;20.75;;;;;25.65;45.28;101023.38;5077949;28;45260;-46
2021/07/23 08:03:41;;;;;;;;;22.00;17.50;;;;;25.66;45.70;101030.38;5077506;28;46162;-44
2021/07/23 08:06:24;;;;;;;;;22.50;21.50;;;;;25.68;45.58;101030.25;5077620;28;45710;-49
2021/07/23 08:08:51;;;;;;;;;21.50;19.50;;;;;25.69;44.92;101023.97;5077084;27;45404;-45
2021/07/23 08:11:17;;;;;;;;;20.50;19.25;;;;;25.71;44.92;101030.03;5078502;28;45226;-47
2021/07/23 08:13:42;;;;;;;;;20.00;18.25;;;;;25.71;45.29;101014.94;5077904;28;45953;-49
2021/07/23 08:16:09;;;;;;;;;23.50;22.50;;;;;25.73;45.05;101018.31;5077840;28;45488;-48
2021/07/23 08:18:35;;;;;;;;;20.50;17.25;;;;;25.76;45.08;101011.94;5077482;27;45478;-47
2021/07/23 08:21:05;;;;;;;;;23.25;20.25;;;;;25.74;45.61;101009.41;5077898;28;45423;-47
2021/07/23 08:23:32;;;;;;;;;21.00;21.00;;;;;25.77;45.15;101003.00;5077362;28;45832;-47
2021/07/23 08:25:57;;;;;;;;;21.00;19.50;;;;;25.78;45.46;101002.06;5076766;27;45863;-46
2021/07/23 08:28:22;;;;;;;;;25.25;22.00;;;;;25.80;45.32;101001.94;5077578;28;45443;-47
2021/07/23 08:30:48;;;;;;;;;21.75;19.75;;;;;25.81;45.17;100988.56;5078055;28;45482;-46
2021/07/23 08:33:14;;;;;;;;;18.50;18.50;;;;;25.83;44.97;101007.00;5077383;28;46244;-49
2021/07/23 08:35:41;;;;;;;;;24.25;17.50;;;;;25.84;44.85;101004.25;5077572;27;45424;-50
2021/07/23 08:38:06;;;;;;;;;19.50;19.25;;;;;25.84;45.32;101001.59;5059453;28;45264;-48
2021/07/23 08:40:32;;;;;;;;;17.50;17.50;;;;;25.86;45.22;101001.47;5077572;27;45304;-47
2021/07/23 08:43:00;;;;;;;;;20.75;17.75;;;;;25.88;45.26;100994.25;5077425;28;46064;-48
2021/07/23 08:45:25;;;;;;;;;19.25;18.00;;;;;25.88;45.07;100992.41;5077381;27;45382;-46
2021/07/23 08:47:52;;;;;;;;;24.75;20.75;;;;;25.89;44.94;100988.81;5077779;28;45300;-44
2021/07/23 08:50:18;;;;;;;;;21.50;19.50;;;;;25.90;44.71;100979.06;5077567;28;45258;-47
2021/07/23 08:52:48;;;;;;;;;21.50;21.00;;;;;25.91;45.21;100978.91;5076967;28;46192;-46
2021/07/23 08:55:18;;;;;;;;;22.50;21.25;;;;;25.92;45.17;100985.94;5077367;28;45952;-48
2021/07/23 08:57:45;;;;;;;;;20.00;19.00;;;;;25.93;45.05;100987.63;5077513;28;45253;-47
2021/07/23 09:00:13;;;;;;;;;22.50;20.00;;;;;25.96;44.88;100980.38;5077614;28;45446;-46
2021/07/23 09:02:56;;;;;;;;;19.75;19.00;;;;;25.97;44.83;100982.91;5076977;28;47508;-47
2021/07/23 09:05:25;;;;;;;;;19.25;18.25;;;;;25.97;44.90;100977.59;5077630;28;45902;-46
2021/07/23 09:07:51;;;;;;;;;23.00;18.75;;;;;25.98;44.47;100966.03;5077588;28;45250;-50
2021/07/23 09:10:30;;;;;;;;;20.75;18.50;;;;;26.00;44.48;100979.16;5076473;28;45401;-46
2021/07/23 09:12:59;;;;;;;;;20.50;18.50;;;;;26.00;44.88;100969.41;5076018;28;46124;-46
2021/07/23 09:15:50;;;;;;;;;22.00;20.75;;;;;26.02;44.75;100971.94;5077358;28;45193;-46
2021/07/23 09:18:31;;;;;;;;;22.50;18.00;;;;;26.03;44.94;100965.66;5074037;28;45366;-49
2021/07/23 09:21:01;;;;;;;;;21.25;18.25;;;;;26.04;44.70;100976.16;5077203;28;45420;-50
2021/07/23 09:23:31;;;;;;;;;19.25;17.75;;;;;26.05;44.81;100958.44;5076837;28;46313;-46
2021/07/23 09:26:13;;;;;;;;;21.50;20.25;;;;;26.05;44.60;100955.78;5076622;28;45764;-48
2021/07/23 09:28:40;;;;;;;;;19.25;17.50;;;;;26.07;44.76;100953.84;5076798;28;45176;-47
2021/07/23 09:31:18;;;;;;;;;24.00;17.75;;;;;26.08;44.78;100950.19;5076946;28;45562;-44
2021/07/23 09:33:43;;;;;;;;;22.50;20.25;;;;;26.09;44.10;100943.94;5058368;28;48798;-49
2021/07/23 09:36:13;;;;;;;;;19.50;18.00;;;;;26.10;44.73;100944.81;5076535;28;45384;-46
2021/07/23 09:38:46;;;;;;;;;23.00;20.25;;;;;26.11;44.46;100941.22;5076766;28;45210;-48
2021/07/23 09:41:24;;;;;;;;;21.25;19.25;;;;;26.11;44.67;100941.22;5076890;28;45358;-47
2021/07/23 09:44:25;;;;;;;;;22.25;20.75;;;;;26.11;44.13;100942.03;5076196;28;46852;-47
2021/07/23 09:46:50;;;;;;;;;19.75;18.25;;;;;26.12;43.81;100938.41;5065547;28;45497;-47
2021/07/23 09:49:28;;;;;;;;;24.25;22.75;;;;;26.12;44.15;100930.44;5076371;27;45423;-47
2021/07/23 09:51:55;;;;;;;;;20.00;18.75;;;;;26.12;44.21;100917.16;5077079;28;45267;-49
2021/07/23 09:54:21;;;;;;;;;19.50;18.00;;;;;26.12;43.91;100911.84;5076304;28;46184;-45
2021/07/23 09:56:48;;;;;;;;;20.25;18.75;;;;;26.14;43.92;100909.06;5076413;28;45226;-48
2021/07/23 09:59:25;;;;;;;;;23.75;19.00;;;;;26.13;44.04;100902.94;5076505;28;45362;-47
2021/07/23 10:01:57;;;;;;;;;22.00;19.25;;;;;26.14;44.00;100904.63;5076622;28;45445;-48
2021/07/23 10:04:33;;;;;;;;;22.75;17.75;;;;;26.15;43.82;100895.69;5075359;28;46308;-47
2021/07/23 10:07:12;;;;;;;;;22.50;21.25;;;;;26.16;43.54;100878.78;5076210;28;46014;-48
2021/07/23 10:09:41;;;;;;;;;22.25;19.00;;;;;26.15;43.99;100869.13;5076419;28;45312;-46
2021/07/23 10:12:09;;;;;;;;;20.00;18.75;;;;;26.17;43.79;100863.69;5076491;28;45563;-45
2021/07/23 10:14:39;;;;;;;;;19.75;19.75;;;;;26.18;43.57;100862.72;5076192;28;46095;-48
2021/07/23 10:17:07;;;;;;;;;26.25;20.50;;;;;26.16;43.44;100857.53;5076193;28;45822;-46
2021/07/23 10:19:33;;;;;;;;;21.25;19.25;;;;;26.18;43.67;100857.41;5076329;28;45256;-48
2021/07/23 10:21:59;;;;;;;;;21.25;20.00;;;;;26.18;44.05;100846.78;5078365;28;45520;-47
2021/07/23 10:24:31;;;;;;;;;18.25;18.25;;;;;26.19;43.81;100844.00;5079782;27;45800;-48
2021/07/23 10:26:57;;;;;;;;;24.00;20.00;;;;;26.19;43.91;100844.00;5079754;28;45288;-49
2021/07/23 10:29:42;;;;;;;;;19.25;19.25;;;;;26.21;43.77;100836.75;5079608;28;45378;-46
2021/07/23 10:32:22;;;;;;;;;21.00;19.50;;;;;26.22;43.74;100826.97;5061712;28;45453;-48
2021/07/23 10:34:48;;;;;;;;;22.75;20.25;;;;;26.22;43.24;100824.31;5079417;28;46070;-47
2021/07/23 10:37:33;;;;;;;;;25.00;21.50;;;;;26.22;43.86;100825.16;5079337;27;45375;-46
2021/07/23 10:40:08;;;;;;;;;15.00;13.25;;;;;26.23;43.16;100829.50;5079812;28;45259;-47
2021/07/23 10:42:40;;;;;;;;;25.75;20.25;;;;;26.22;43.35;100814.53;5079690;28;45232;-50
2021/07/23 10:45:08;;;;;;;;;21.75;19.00;;;;;26.23;43.57;100816.22;5079335;27;46337;-48
2021/07/23 10:47:41;;;;;;;;;20.25;19.00;;;;;26.26;43.46;100811.63;5079186;28;45336;-49
2021/07/23 10:50:09;;;;;;;;;21.25;21.25;;;;;26.26;43.85;100795.69;5079103;28;45342;-48
2021/07/23 10:52:36;;;;;;;;;23.50;18.75;;;;;26.26;43.66;100801.00;5079568;27;45531;-47
2021/07/23 10:55:11;;;;;;;;;22.50;21.75;;;;;26.27;43.75;100792.91;5079102;28;46501;-47
2021/07/23 10:57:37;;;;;;;;;22.75;21.00;;;;;26.28;43.95;100788.44;5079129;28;45862;-48
2021/07/23 11:00:04;;;;;;;;;24.00;23.75;;;;;26.29;43.70;100785.66;5079257;27;45311;-45
2021/07/23 11:02:29;;;;;;;;;23.50;20.50;;;;;26.30;43.55;100778.53;5079591;28;45631;-48
2021/07/23 11:05:03;;;;;;;;;25.67;25.67;;;;;26.31;43.55;100767.78;5078985;27;45334;-47
2021/07/23 11:07:29;;;;;;;;;23.25;21.75;;;;;26.33;44.27;100770.31;5079155;28;45413;-48
2021/07/23 11:09:55;;;;;;;;;22.75;21.25;;;;;26.34;43.93;100761.38;5078999;28;45473;-47